Time;durP1;ratioP1;P1;durP2;ratioP2;P2;SDS_P1;SDS_P2;PMS_P1;PMS_P2;Temp;Humidity;BMP_temperature;BMP_pressure;BME280_temperature;BME280_humidity;BME280_pressure;Samples;Min_cycle;Max_cycle;Signal;HPM_P1;HPM_P2
2022/05/07 00:02:09;;;;;;;17.40;14.20;;;14.80;92.10;;;;;;5011942;28;20453;-44
2022/05/07 00:04:36;;;;;;;22.37;14.13;;;15.00;92.30;;;;;;5012884;28;20516;-43
2022/05/07 00:07:02;;;;;;;18.57;13.73;;;15.00;92.40;;;;;;5012240;28;20437;-44
2022/05/07 00:09:29;;;;;;;21.93;14.20;;;15.00;92.50;;;;;;5011815;28;20544;-44
2022/05/07 00:11:58;;;;;;;20.13;14.90;;;15.00;92.60;;;;;;5012238;28;20437;-43
2022/05/07 00:14:25;;;;;;;19.60;15.27;;;14.60;92.50;;;;;;5012181;28;20919;-44
2022/05/07 00:19:35;;;;;;;17.73;14.17;;;15.10;92.90;;;;;;5011968;28;20435;-43
2022/05/07 00:22:02;;;;;;;19.90;14.00;;;14.40;92.70;;;;;;5011817;28;20800;-43
2022/05/07 00:24:29;;;;;;;17.30;14.50;;;15.40;93.30;;;;;;5011983;28;20447;-43
2022/05/07 00:26:56;;;;;;;17.30;13.70;;;15.40;93.30;;;;;;5011975;28;20436;-44
2022/05/07 00:29:23;;;;;;;18.20;13.87;;;15.10;93.20;;;;;;5010463;28;20440;-43
2022/05/07 00:31:50;;;;;;;17.80;13.80;;;15.30;93.30;;;;;;5012174;28;20441;-44
2022/05/07 00:34:17;;;;;;;19.27;13.77;;;15.10;93.20;;;;;;5010954;28;20789;-44
2022/05/07 00:36:43;;;;;;;18.10;12.43;;;15.30;93.40;;;;;;5011987;28;20490;-44
2022/05/07 00:39:10;;;;;;;17.27;14.37;;;15.20;93.30;;;;;;5011711;28;20436;-43
2022/05/07 00:41:39;;;;;;;17.37;13.37;;;15.00;93.20;;;;;;5011733;28;20929;-44
2022/05/07 00:44:06;;;;;;;16.50;13.80;;;15.00;93.20;;;;;;5012293;28;20467;-43
2022/05/07 00:46:34;;;;;;;18.17;12.83;;;15.00;93.20;;;;;;5012564;28;20432;-43
2022/05/07 00:49:01;;;;;;;17.90;13.30;;;14.90;93.20;;;;;;5009953;28;20456;-44
2022/05/07 00:51:33;;;;;;;23.47;14.63;;;15.20;93.30;;;;;;5010305;28;20829;-43
2022/05/07 00:54:01;;;;;;;20.93;14.17;;;15.20;93.30;;;;;;5010560;28;20838;-44
2022/05/07 00:56:28;;;;;;;17.90;12.70;;;15.40;93.30;;;;;;5011622;28;20488;-44
2022/05/07 00:58:56;;;;;;;20.33;13.33;;;15.40;93.30;;;;;;5009812;28;20822;-44
2022/05/07 01:01:23;;;;;;;15.70;12.43;;;14.60;92.90;;;;;;5009677;28;20464;-44
2022/05/07 01:03:51;;;;;;;16.37;12.77;;;15.30;93.30;;;;;;5010216;28;20474;-44
2022/05/07 01:06:19;;;;;;;20.03;14.90;;;15.40;93.30;;;;;;5009956;28;20507;-44
2022/05/07 01:08:47;;;;;;;17.90;12.83;;;15.20;93.20;;;;;;5010796;28;20898;-44
2022/05/07 01:11:14;;;;;;;14.50;13.00;;;15.60;93.40;;;;;;5008780;28;20502;-44
2022/05/07 01:13:43;;;;;;;16.40;13.20;;;15.40;93.30;;;;;;5009761;28;20583;-44
2022/05/07 01:16:11;;;;;;;19.23;13.60;;;15.30;93.30;;;;;;5009735;28;21025;-44
2022/05/07 01:18:39;;;;;;;16.47;12.07;;;15.20;93.20;;;;;;5009424;28;20444;-44
2022/05/07 01:21:13;;;;;;;16.37;12.67;;;15.40;93.30;;;;;;5009686;28;20461;-45
2022/05/07 01:23:42;;;;;;;15.23;12.40;;;15.40;93.20;;;;;;5009752;28;21058;-44
2022/05/07 01:26:09;;;;;;;15.93;11.53;;;15.40;93.20;;;;;;5011153;28;20460;-44
2022/05/07 01:28:37;;;;;;;17.07;12.27;;;15.10;93.00;;;;;;5009373;28;20449;-44
2022/05/07 01:31:06;;;;;;;24.90;13.03;;;15.80;93.20;;;;;;5009821;28;20442;-43
2022/05/07 01:33:34;;;;;;;13.40;11.70;;;15.00;92.80;;;;;;5009456;28;20473;-44
2022/05/07 01:36:07;;;;;;;17.13;10.80;;;15.30;92.60;;;;;;5009474;28;20476;-44
2022/05/07 01:38:36;;;;;;;12.53;9.20;;;15.40;92.20;;;;;;5009201;28;20472;-44
2022/05/07 01:41:03;;;;;;;14.33;10.70;;;15.30;91.70;;;;;;5010907;28;20461;-44
2022/05/07 01:43:32;;;;;;;13.83;9.20;;;15.30;91.60;;;;;;5009355;28;20483;-44
2022/05/07 01:45:59;;;;;;;10.10;9.00;;;15.30;91.40;;;;;;5009308;28;20510;-44
2022/05/07 01:48:25;;;;;;;9.00;7.70;;;15.50;91.10;;;;;;5008844;28;20445;-43
2022/05/07 01:50:55;;;;;;;13.60;9.07;;;15.30;90.80;;;;;;5009176;28;20471;-43
2022/05/07 01:53:27;;;;;;;10.50;7.80;;;15.40;90.60;;;;;;5009277;28;20521;-44
2022/05/07 01:55:57;;;;;;;12.00;8.23;;;15.60;90.40;;;;;;5009134;28;20476;-45
2022/05/07 01:58:33;;;;;;;8.43;7.13;;;16.10;90.50;;;;;;5008762;28;20448;-44
2022/05/07 02:01:03;;;;;;;8.73;7.50;;;15.50;89.90;;;;;;5009026;28;20452;-45
2022/05/07 02:03:30;;;;;;;8.80;7.30;;;15.60;89.90;;;;;;5008941;28;20478;-45
2022/05/07 02:05:57;;;;;;;11.03;7.20;;;15.70;89.80;;;;;;5009300;28;20449;-44
2022/05/07 02:08:23;;;;;;;8.90;6.53;;;15.50;89.30;;;;;;5008908;28;20486;-43
2022/05/07 02:10:50;;;;;;;7.97;6.77;;;15.60;89.10;;;;;;5010115;28;20535;-43
2022/05/07 02:13:18;;;;;;;9.03;6.60;;;15.60;88.90;;;;;;5008903;28;20901;-43
2022/05/07 02:15:45;;;;;;;7.87;6.97;;;15.50;88.50;;;;;;5008838;28;20563;-44
2022/05/07 02:18:13;;;;;;;8.47;7.13;;;15.60;88.50;;;;;;5008888;28;20805;-44
2022/05/07 02:20:39;;;;;;;6.80;6.20;;;16.20;89.10;;;;;;5008583;28;20454;-44
2022/05/07 02:23:06;;;;;;;9.20;6.37;;;15.30;88.00;;;;;;5008004;28;20468;-44
2022/05/07 02:25:33;;;;;;;6.63;6.00;;;15.80;88.50;;;;;;5008731;28;20449;-44
2022/05/07 02:28:03;;;;;;;6.13;5.43;;;15.30;87.90;;;;;;5008793;28;20974;-44
2022/05/07 02:30:31;;;;;;;8.40;6.07;;;15.90;88.50;;;;;;5008558;28;20464;-44
2022/05/07 02:33:03;;;;;;;8.37;6.33;;;15.20;87.60;;;;;;5008465;28;20565;-44
2022/05/07 02:35:32;;;;;;;7.37;6.13;;;15.70;87.90;;;;;;5008579;28;20479;-44
2022/05/07 02:37:59;;;;;;;6.93;5.13;;;15.60;87.60;;;;;;5008597;28;20445;-44
2022/05/07 02:40:26;;;;;;;5.47;4.87;;;15.50;87.20;;;;;;5009519;28;20444;-44
2022/05/07 02:42:54;;;;;;;7.30;5.23;;;15.60;87.10;;;;;;5008618;28;20885;-44
2022/05/07 02:45:22;;;;;;;7.97;5.67;;;15.60;86.90;;;;;;5008555;28;20822;-44
2022/05/07 02:47:54;;;;;;;6.83;4.93;;;15.70;86.90;;;;;;5008330;28;20456;-44
2022/05/07 02:50:22;;;;;;;10.30;5.20;;;15.90;86.80;;;;;;5008182;28;20488;-44
2022/05/07 02:52:49;;;;;;;6.43;4.90;;;16.00;86.90;;;;;;5008489;28;21008;-44
2022/05/07 02:55:16;;;;;;;6.07;4.93;;;15.70;86.50;;;;;;5009816;28;20523;-44
2022/05/07 02:57:49;;;;;;;5.73;4.80;;;15.60;86.50;;;;;;5011198;28;20893;-44
2022/05/07 03:00:18;;;;;;;8.67;6.27;;;15.70;86.70;;;;;;5010957;28;20513;-44
2022/05/07 03:02:47;;;;;;;6.97;4.77;;;15.60;86.70;;;;;;5008535;28;20533;-44
2022/05/07 03:05:14;;;;;;;6.53;5.63;;;16.10;87.40;;;;;;5008141;28;21023;-44
2022/05/07 03:07:44;;;;;;;5.30;4.80;;;15.60;87.10;;;;;;5008113;28;20538;-44
2022/05/07 03:10:16;;;;;;;6.10;4.93;;;15.10;86.70;;;;;;5007768;28;20957;-44
2022/05/07 03:12:43;;;;;;;8.10;5.57;;;16.00;87.90;;;;;;5007796;28;20838;-44
2022/05/07 03:15:10;;;;;;;6.20;5.03;;;15.60;87.60;;;;;;5007895;28;20453;-44
2022/05/07 03:17:37;;;;;;;21.17;5.37;;;15.70;87.90;;;;;;5009212;28;20479;-44
2022/05/07 03:20:09;;;;;;;6.80;5.03;;;15.60;87.80;;;;;;5007546;28;20456;-44
2022/05/07 03:22:39;;;;;;;8.10;5.80;;;15.50;87.60;;;;;;5007743;28;20476;-43
2022/05/07 03:25:06;;;;;;;8.53;5.03;;;15.70;87.80;;;;;;5008005;28;20470;-44
2022/05/07 03:27:33;;;;;;;7.33;5.00;;;15.50;87.60;;;;;;5007777;28;20453;-44
2022/05/07 03:30:00;;;;;;;7.97;6.00;;;15.30;87.50;;;;;;5007397;28;20460;-43
2022/05/07 03:32:29;;;;;;;7.67;5.90;;;16.10;88.60;;;;;;5007898;28;20480;-44
2022/05/07 03:34:57;;;;;;;8.40;5.93;;;15.50;88.40;;;;;;5010033;28;20938;-44
2022/05/07 03:37:25;;;;;;;6.10;5.30;;;15.50;89.20;;;;;;5012588;28;20476;-45
2022/05/07 03:39:52;;;;;;;6.27;5.27;;;16.00;90.10;;;;;;5010851;28;20855;-44
2022/05/07 03:42:20;;;;;;;7.40;5.97;;;15.70;90.10;;;;;;5011281;28;20563;-44
2022/05/07 03:44:47;;;;;;;10.13;6.27;;;14.80;89.50;;;;;;5012700;28;20471;-45
2022/05/07 03:47:14;;;;;;;8.63;5.70;;;15.70;90.40;;;;;;5011053;28;20444;-44
2022/05/07 03:49:44;;;;;;;10.67;6.57;;;15.30;90.20;;;;;;5010954;28;20449;-44
2022/05/07 03:54:57;;;;;;;11.10;5.97;;;15.20;90.40;;;;;;5011543;28;20493;-44
2022/05/07 03:57:24;;;;;;;8.77;6.23;;;15.00;90.40;;;;;;5010961;28;20484;-44
2022/05/07 03:59:51;;;;;;;9.20;6.47;;;15.00;90.60;;;;;;5010866;28;20444;-44
2022/05/07 04:02:19;;;;;;;6.73;5.67;;;14.60;90.40;;;;;;5010929;28;20956;-44
2022/05/07 04:04:51;;;;;;;7.90;6.20;;;15.00;90.50;;;;;;5012089;28;20474;-44
2022/05/07 04:07:18;;;;;;;7.50;5.43;;;15.40;90.70;;;;;;5010813;28;20487;-44
2022/05/07 04:09:54;;;;;;;10.00;5.70;;;15.20;90.40;;;;;;5010757;28;20451;-44
2022/05/07 04:12:24;;;;;;;13.60;5.37;;;15.30;90.20;;;;;;5010891;28;20472;-45
2022/05/07 04:14:51;;;;;;;7.00;5.70;;;15.50;90.20;;;;;;5012175;28;20463;-44
2022/05/07 04:17:19;;;;;;;11.03;6.40;;;15.30;90.00;;;;;;5010610;28;20476;-44
2022/05/07 04:19:46;;;;;;;14.07;6.10;;;15.40;90.00;;;;;;5010058;28;21027;-44
2022/05/07 04:22:13;;;;;;;8.03;5.97;;;15.90;90.20;;;;;;5011308;28;20515;-44
2022/05/07 04:24:45;;;;;;;10.10;6.87;;;15.50;90.00;;;;;;5011490;28;20821;-44
2022/05/07 04:27:12;;;;;;;9.13;6.20;;;15.60;90.00;;;;;;5010612;28;20455;-43
2022/05/07 04:29:41;;;;;;;6.83;6.23;;;15.60;90.00;;;;;;5010427;28;20455;-42
2022/05/07 04:32:15;;;;;;;12.33;8.43;;;15.70;89.80;;;;;;5010836;28;20479;-43
2022/05/07 04:34:47;;;;;;;7.73;5.77;;;15.70;89.60;;;;;;5010457;28;20448;-43
2022/05/07 04:37:14;;;;;;;6.00;5.40;;;16.00;89.70;;;;;;5010654;28;20468;-42
2022/05/07 04:39:41;;;;;;;9.03;6.13;;;15.60;88.90;;;;;;5010118;28;20476;-44
2022/05/07 04:42:10;;;;;;;6.53;5.83;;;16.30;89.40;;;;;;5010408;28;20507;-44
2022/05/07 04:44:44;;;;;;;8.50;6.17;;;16.10;88.70;;;;;;5010464;28;20465;-42
2022/05/07 04:47:23;;;;;;;8.93;6.87;;;16.00;88.10;;;;;;5010457;28;21012;-42
2022/05/07 04:49:50;;;;;;;10.70;6.33;;;16.00;87.60;;;;;;5010109;28;20440;-42
2022/05/07 04:52:17;;;;;;;9.50;5.70;;;16.30;87.70;;;;;;5010683;28;20613;-42
2022/05/07 04:54:49;;;;;;;8.60;6.43;;;16.00;87.40;;;;;;5010826;28;20540;-43
2022/05/07 04:57:17;;;;;;;6.47;5.83;;;16.20;87.70;;;;;;5010612;28;20504;-44
2022/05/07 04:59:57;;;;;;;7.20;6.10;;;16.30;87.50;;;;;;5010740;28;20453;-42
2022/05/07 05:02:34;;;;;;;7.07;6.37;;;16.10;87.10;;;;;;5010306;28;20472;-44
2022/05/07 05:05:06;;;;;;;9.00;6.17;;;16.20;86.90;;;;;;5010734;28;20453;-43
2022/05/07 05:07:32;;;;;;;7.17;6.47;;;16.40;86.90;;;;;;5010349;28;20447;-43
2022/05/07 05:09:59;;;;;;;10.10;6.30;;;16.60;86.70;;;;;;5010222;28;20458;-43
2022/05/07 05:12:35;;;;;;;7.17;5.23;;;17.00;86.80;;;;;;5009892;28;20504;-43
2022/05/07 05:15:06;;;;;;;6.90;6.20;;;16.90;86.70;;;;;;5009921;28;20486;-43
2022/05/07 05:17:46;;;;;;;7.70;5.83;;;16.60;86.50;;;;;;5010228;28;20531;-44
2022/05/07 05:20:13;;;;;;;9.37;5.83;;;16.60;86.60;;;;;;5009855;28;20504;-44
2022/05/07 05:22:48;;;;;;;6.50;5.40;;;17.20;87.30;;;;;;5010573;28;20475;-43
2022/05/07 05:25:19;;;;;;;5.77;5.00;;;16.60;86.30;;;;;;5010087;28;20487;-43
2022/05/07 05:27:47;;;;;;;7.57;6.30;;;16.60;85.70;;;;;;5010411;28;20511;-44
2022/05/07 05:30:15;;;;;;;8.60;6.33;;;16.70;85.50;;;;;;5010042;28;20443;-42
2022/05/07 05:32:42;;;;;;;6.87;6.13;;;17.20;85.60;;;;;;5010060;28;20473;-42
2022/05/07 05:35:11;;;;;;;9.63;5.90;;;17.30;85.10;;;;;;5009689;28;20480;-44
2022/05/07 05:37:43;;;;;;;10.90;6.37;;;17.80;84.80;;;;;;5009889;28;20479;-44
2022/05/07 05:40:12;;;;;;;8.03;5.20;;;17.50;83.70;;;;;;5009450;28;20454;-44
2022/05/07 05:42:44;;;;;;;9.47;6.47;;;17.50;83.00;;;;;;5010180;28;20967;-43
2022/05/07 05:45:11;;;;;;;9.17;4.90;;;17.80;83.00;;;;;;5011491;28;20537;-42
2022/05/07 05:47:43;;;;;;;7.23;4.90;;;17.80;82.20;;;;;;5009784;28;20817;-44
2022/05/07 05:50:10;;;;;;;10.63;5.20;;;18.00;81.70;;;;;;5009599;28;20826;-44
2022/05/07 05:52:42;;;;;;;7.37;4.80;;;18.20;81.40;;;;;;5009806;28;20481;-44
2022/05/07 05:55:09;;;;;;;10.70;4.90;;;18.10;81.10;;;;;;5010735;28;20464;-43
2022/05/07 05:57:36;;;;;;;9.00;4.80;;;18.10;80.90;;;;;;5010212;28;20480;-43
2022/05/07 06:00:04;;;;;;;8.00;4.90;;;17.80;80.30;;;;;;5011204;28;20445;-43
2022/05/07 06:02:40;;;;;;;7.63;4.77;;;18.20;80.60;;;;;;5011244;28;20538;-44
2022/05/07 06:05:11;;;;;;;5.73;4.13;;;17.90;80.30;;;;;;5009785;28;20546;-43
2022/05/07 06:07:40;;;;;;;5.27;4.33;;;17.70;79.90;;;;;;5009839;28;20835;-44
2022/05/07 06:10:09;;;;;;;6.27;4.07;;;18.20;80.10;;;;;;5009003;28;20451;-45
2022/05/07 06:12:36;;;;;;;5.63;4.53;;;18.40;79.70;;;;;;5010476;28;20472;-44
2022/05/07 06:15:04;;;;;;;5.67;4.03;;;18.60;79.10;;;;;;5011491;28;20481;-43
2022/05/07 06:17:32;;;;;;;6.60;4.40;;;18.50;78.50;;;;;;5010178;28;20490;-42
2022/05/07 06:19:59;;;;;;;5.73;3.70;;;18.60;78.20;;;;;;5008843;28;20985;-43
2022/05/07 06:22:27;;;;;;;5.87;4.33;;;18.90;78.10;;;;;;5009406;28;20577;-43
2022/05/07 06:27:56;;;;;;;11.17;5.40;;;19.00;77.40;;;;;;5010878;28;20449;-43
2022/05/07 06:30:30;;;;;;;6.57;4.60;;;18.80;77.00;;;;;;5009185;28;20451;-44
2022/05/07 06:32:59;;;;;;;6.70;4.77;;;18.60;76.30;;;;;;5009349;28;20475;-43
2022/05/07 06:35:33;;;;;;;5.23;3.70;;;19.40;76.20;;;;;;5009144;28;20464;-44
2022/05/07 06:38:09;;;;;;;5.70;4.60;;;19.40;76.10;;;;;;5009171;28;20871;-44
2022/05/07 06:40:37;;;;;;;10.70;3.80;;;19.20;76.10;;;;;;5009297;28;20463;-43
2022/05/07 06:43:04;;;;;;;6.30;3.20;;;19.30;74.90;;;;;;5010748;28;21049;-43
2022/05/07 06:45:40;;;;;;;7.50;4.13;;;19.70;74.50;;;;;;5009480;28;20443;-44
2022/05/07 06:48:12;;;;;;;4.20;3.80;;;19.70;74.10;;;;;;5009003;28;20451;-44
2022/05/07 06:50:40;;;;;;;4.60;3.87;;;19.70;73.70;;;;;;5009401;28;20459;-44
2022/05/07 06:53:10;;;;;;;4.70;3.97;;;20.20;74.20;;;;;;5009025;28;20478;-43
2022/05/07 06:55:54;;;;;;;4.83;3.43;;;20.30;73.90;;;;;;5010676;28;20431;-44
2022/05/07 06:58:21;;;;;;;5.83;3.60;;;19.60;73.00;;;;;;5010265;28;20499;-45
2022/05/07 07:00:48;;;;;;;6.53;4.50;;;19.60;72.90;;;;;;5010403;28;20929;-42
2022/05/07 07:03:14;;;;;;;4.27;3.83;;;20.00;73.00;;;;;;5010705;28;20474;-43
2022/05/07 07:05:42;;;;;;;8.33;5.90;;;19.80;72.80;;;;;;5010916;28;20437;-44
2022/05/07 07:08:13;;;;;;;4.80;3.80;;;19.90;72.80;;;;;;5010389;28;20519;-43
2022/05/07 07:10:39;;;;;;;5.67;4.77;;;19.90;72.40;;;;;;5009633;28;20460;-44
2022/05/07 07:13:06;;;;;;;4.77;4.30;;;19.90;72.30;;;;;;5010188;28;20474;-44
2022/05/07 07:15:33;;;;;;;6.70;3.80;;;20.00;72.10;;;;;;5008767;28;20453;-43
2022/05/07 07:18:01;;;;;;;5.47;3.70;;;20.20;71.40;;;;;;5010042;28;20488;-44
2022/05/07 07:20:28;;;;;;;6.47;3.80;;;20.40;70.50;;;;;;5010218;28;20499;-44
2022/05/07 07:22:55;;;;;;;5.10;4.13;;;20.30;69.20;;;;;;5010371;28;20866;-43
2022/05/07 07:25:23;;;;;;;4.90;4.43;;;20.40;69.00;;;;;;5010886;28;20443;-43
2022/05/07 07:27:49;;;;;;;7.57;4.17;;;19.90;67.70;;;;;;5010241;28;20425;-44
2022/05/07 07:30:17;;;;;;;3.83;3.27;;;20.50;67.90;;;;;;5009857;28;20511;-43
2022/05/07 07:32:44;;;;;;;6.50;3.77;;;20.70;67.80;;;;;;5010761;28;20595;-44
2022/05/07 07:35:10;;;;;;;4.87;4.33;;;21.10;67.50;;;;;;5010710;28;20478;-44
2022/05/07 07:37:37;;;;;;;5.03;3.70;;;21.10;66.80;;;;;;5009920;28;20484;-43
2022/05/07 07:40:04;;;;;;;6.90;3.87;;;21.20;66.60;;;;;;5010395;28;20446;-44
2022/05/07 07:42:32;;;;;;;6.73;4.37;;;21.20;65.30;;;;;;5010921;28;20470;-44
2022/05/07 07:47:59;;;;;;;7.83;4.20;;;21.50;64.60;;;;;;5011031;28;20430;-43
2022/05/07 07:50:29;;;;;;;10.93;4.67;;;21.30;64.40;;;;;;5011385;28;20454;-43
2022/05/07 07:52:57;;;;;;;7.33;5.47;;;21.40;64.50;;;;;;5011231;28;20463;-44
2022/05/07 07:55:24;;;;;;;8.30;5.07;;;20.80;63.70;;;;;;5011479;28;20439;-43
2022/05/07 07:57:54;;;;;;;7.83;4.80;;;21.30;64.10;;;;;;5010994;28;20487;-45
2022/05/07 08:00:21;;;;;;;5.80;4.50;;;21.40;64.40;;;;;;5010024;28;20435;-43
2022/05/07 08:02:49;;;;;;;13.10;5.50;;;21.40;64.30;;;;;;5010098;28;20550;-44
2022/05/07 08:05:17;;;;;;;7.80;4.63;;;21.10;63.70;;;;;;5011777;28;20436;-43
2022/05/07 08:13:15;;;;;;;6.17;4.60;;;21.70;63.90;;;;;;5010550;28;20465;-45
2022/05/07 08:15:41;;;;;;;6.90;5.13;;;21.80;63.80;;;;;;5009309;28;20463;-44
2022/05/07 08:18:08;;;;;;;12.70;5.67;;;21.10;62.90;;;;;;5009899;28;20490;-43
2022/05/07 08:20:35;;;;;;;8.20;5.40;;;21.20;62.80;;;;;;5010690;28;20439;-44
2022/05/07 08:23:02;;;;;;;8.60;5.80;;;21.60;63.00;;;;;;5013389;28;20490;-44
2022/05/07 08:25:29;;;;;;;7.60;5.80;;;21.40;62.40;;;;;;5014412;28;20442;-45
2022/05/07 08:27:56;;;;;;;6.20;4.77;;;21.80;62.20;;;;;;5013062;28;20439;-45
2022/05/07 08:30:24;;;;;;;7.33;5.00;;;22.00;61.70;;;;;;5011717;28;20452;-45
2022/05/07 08:32:51;;;;;;;8.17;5.90;;;22.10;61.90;;;;;;5013535;28;20477;-45
2022/05/07 08:35:18;;;;;;;7.80;5.70;;;22.10;61.30;;;;;;5012033;28;21002;-44
2022/05/07 08:37:44;;;;;;;10.13;5.77;;;22.00;61.10;;;;;;5013757;28;20472;-44
2022/05/07 08:40:16;;;;;;;8.90;6.40;;;22.00;60.70;;;;;;5013497;28;20443;-43
2022/05/07 08:42:43;;;;;;;9.17;5.93;;;21.90;60.40;;;;;;5012248;28;20480;-44
2022/05/07 08:45:12;;;;;;;6.53;5.20;;;22.30;60.60;;;;;;5013030;28;20470;-44
2022/05/07 08:47:40;;;;;;;10.77;6.73;;;21.80;59.70;;;;;;5012802;28;20475;-43
2022/05/07 08:50:09;;;;;;;11.43;6.10;;;21.60;59.10;;;;;;5013285;28;20503;-43
2022/05/07 08:52:42;;;;;;;8.40;5.80;;;21.90;59.00;;;;;;5014068;28;20458;-44
2022/05/07 08:55:11;;;;;;;18.40;7.83;;;21.80;59.20;;;;;;5012761;28;20493;-43
2022/05/07 08:57:37;;;;;;;15.57;7.47;;;21.50;59.20;;;;;;5012779;28;20976;-44
2022/05/07 09:00:05;;;;;;;9.40;7.33;;;21.40;58.40;;;;;;5012660;28;20455;-45
2022/05/07 09:02:39;;;;;;;9.73;6.17;;;21.70;58.90;;;;;;5013662;28;20552;-44
2022/05/07 09:05:08;;;;;;;11.07;5.67;;;21.50;59.10;;;;;;5012557;28;20447;-44
2022/05/07 09:07:35;;;;;;;9.73;6.90;;;21.50;59.30;;;;;;5012534;28;20447;-44
2022/05/07 09:10:01;;;;;;;11.10;6.20;;;21.60;59.60;;;;;;5013168;28;20440;-43
2022/05/07 09:12:29;;;;;;;10.23;6.40;;;21.90;59.70;;;;;;5013223;28;20551;-44
2022/05/07 09:15:01;;;;;;;9.50;5.67;;;21.70;59.30;;;;;;5013256;28;20435;-46
2022/05/07 09:17:28;;;;;;;8.67;6.60;;;21.50;59.20;;;;;;5013282;28;20437;-43
2022/05/07 09:19:54;;;;;;;8.50;6.57;;;21.90;59.20;;;;;;5011947;28;20437;-44
2022/05/07 09:22:25;;;;;;;11.10;6.00;;;21.80;58.80;;;;;;5011847;28;20936;-45
2022/05/07 09:24:56;;;;;;;10.10;5.97;;;22.00;59.10;;;;;;5012321;28;20818;-45
2022/05/07 09:27:22;;;;;;;10.67;6.27;;;21.70;58.90;;;;;;5012190;28;20443;-45
2022/05/07 09:30:00;;;;;;;14.67;5.73;;;22.10;59.00;;;;;;5011460;28;20448;-45
2022/05/07 09:32:36;;;;;;;8.63;5.83;;;21.70;58.60;;;;;;5011068;28;20456;-44
2022/05/07 09:38:01;;;;;;;7.63;4.90;;;22.00;58.60;;;;;;5012243;28;20501;-44
2022/05/07 09:40:28;;;;;;;9.30;5.80;;;22.00;58.50;;;;;;5011796;28;20433;-43
2022/05/07 09:42:57;;;;;;;10.73;5.63;;;22.20;58.70;;;;;;5012064;28;20646;-44
2022/05/07 09:45:25;;;;;;;8.77;6.47;;;22.10;58.70;;;;;;5011985;28;20494;-44
2022/05/07 09:47:52;;;;;;;7.30;5.90;;;22.00;58.70;;;;;;5011714;28;20507;-44
2022/05/07 09:50:24;;;;;;;5.47;4.50;;;22.70;58.70;;;;;;5010894;28;20425;-44
2022/05/07 09:58:26;;;;;;;5.87;5.07;;;22.10;58.20;;;;;;5066020;28;20483;-43
2022/05/07 10:01:11;;;;;;;6.10;4.93;;;22.30;58.40;;;;;;5011760;28;20849;-44
2022/05/07 10:03:46;;;;;;;12.53;5.53;;;22.40;58.20;;;;;;5011516;28;20455;-44
2022/05/07 10:06:30;;;;;;;7.13;4.77;;;22.60;58.00;;;;;;5011733;28;20441;-42
2022/05/07 10:09:10;;;;;;;7.33;4.80;;;23.00;58.00;;;;;;5010957;28;20436;-45
2022/05/07 10:11:39;;;;;;;6.73;4.83;;;22.80;57.50;;;;;;5011900;28;20529;-43
2022/05/07 10:14:06;;;;;;;11.60;5.20;;;23.30;57.20;;;;;;5011358;28;20463;-44
2022/05/07 10:16:34;;;;;;;7.20;5.10;;;23.40;57.00;;;;;;5011671;28;20519;-45
2022/05/07 10:19:10;;;;;;;7.37;4.80;;;23.70;56.80;;;;;;5010745;28;20483;-45
2022/05/07 10:21:36;;;;;;;8.47;6.00;;;23.50;56.50;;;;;;5011121;28;20522;-45
2022/05/07 10:24:05;;;;;;;8.30;6.50;;;23.80;57.00;;;;;;5010442;28;20906;-44
2022/05/07 10:26:41;;;;;;;6.67;5.70;;;23.50;57.10;;;;;;5010586;28;21110;-45
2022/05/07 10:29:08;;;;;;;11.20;6.33;;;23.50;56.80;;;;;;5010301;28;20443;-45
2022/05/07 10:31:45;;;;;;;6.57;4.97;;;23.30;56.30;;;;;;5009977;28;20474;-45
2022/05/07 10:34:12;;;;;;;7.03;4.67;;;23.60;56.60;;;;;;5010275;28;20527;-45
2022/05/07 10:36:39;;;;;;;12.47;4.77;;;23.60;56.70;;;;;;5009998;28;20443;-45
2022/05/07 10:39:09;;;;;;;5.17;4.20;;;23.70;56.30;;;;;;5009754;28;20480;-45
2022/05/07 10:41:47;;;;;;;6.63;4.10;;;23.90;55.90;;;;;;5010095;28;20916;-45
2022/05/07 10:44:29;;;;;;;4.80;4.23;;;24.10;55.50;;;;;;5009843;28;20469;-46
2022/05/07 10:46:55;;;;;;;6.17;4.67;;;24.20;55.40;;;;;;5009803;28;20445;-45
2022/05/07 10:49:22;;;;;;;7.00;5.70;;;24.20;55.50;;;;;;5008733;28;20433;-45
2022/05/07 10:51:52;;;;;;;10.80;6.20;;;24.20;55.50;;;;;;5009943;28;20485;-45
2022/05/07 10:54:21;;;;;;;6.30;5.13;;;24.30;55.90;;;;;;5010227;28;21052;-44
2022/05/07 10:56:51;;;;;;;9.73;6.47;;;23.90;55.90;;;;;;5009741;28;20445;-45
2022/05/07 10:59:18;;;;;;;10.63;5.90;;;23.90;55.90;;;;;;5009827;28;20484;-45
2022/05/07 11:01:48;;;;;;;7.57;5.47;;;23.90;55.80;;;;;;5009890;28;20522;-45
2022/05/07 11:04:18;;;;;;;9.57;5.43;;;23.90;55.80;;;;;;5010067;28;20455;-44
2022/05/07 11:06:49;;;;;;;6.47;4.47;;;24.00;55.80;;;;;;5010415;28;20440;-44
2022/05/07 11:09:17;;;;;;;9.27;5.07;;;24.10;55.70;;;;;;5009671;28;20432;-45
2022/05/07 11:11:45;;;;;;;7.07;5.23;;;24.20;55.80;;;;;;5009301;28;20447;-44
2022/05/07 11:14:20;;;;;;;7.43;5.77;;;24.30;55.20;;;;;;5009368;28;20804;-44
2022/05/07 11:16:47;;;;;;;10.97;6.40;;;24.10;55.00;;;;;;5009139;28;20440;-45
2022/05/07 11:19:23;;;;;;;6.83;5.63;;;24.30;55.50;;;;;;5009124;28;20485;-45
2022/05/07 11:21:52;;;;;;;10.80;5.87;;;24.30;55.60;;;;;;5009129;28;21023;-45
2022/05/07 11:24:19;;;;;;;8.47;5.73;;;24.20;55.50;;;;;;5009381;28;20854;-45
2022/05/07 11:26:50;;;;;;;7.17;6.30;;;24.30;55.20;;;;;;5009373;28;20790;-45
2022/05/07 11:29:19;;;;;;;6.40;5.70;;;24.40;55.10;;;;;;5009391;28;20494;-45
2022/05/07 11:31:55;;;;;;;6.67;5.00;;;24.30;55.60;;;;;;5009342;28;20447;-45
2022/05/07 11:34:30;;;;;;;5.13;4.63;;;24.30;55.40;;;;;;5009649;28;20956;-45
2022/05/07 11:36:57;;;;;;;7.50;5.77;;;24.30;54.80;;;;;;5009301;28;20447;-45
2022/05/07 11:39:24;;;;;;;9.33;7.20;;;24.10;55.00;;;;;;5007119;28;20821;-43
2022/05/07 11:41:55;;;;;;;6.30;5.70;;;24.30;55.30;;;;;;5008971;28;20468;-45
2022/05/07 11:47:22;;;;;;;5.80;5.20;;;24.10;55.80;;;;;;5009579;28;20443;-46
2022/05/07 11:50:02;;;;;;;8.03;5.90;;;24.00;55.80;;;;;;5008934;28;20462;-45
2022/05/07 11:52:30;;;;;;;9.87;6.10;;;23.90;56.00;;;;;;5009037;28;20551;-45
2022/05/07 11:54:56;;;;;;;6.20;5.20;;;23.50;56.00;;;;;;5009220;28;20436;-45
2022/05/07 11:57:30;;;;;;;6.30;5.70;;;23.70;56.10;;;;;;5012657;28;20443;-46
2022/05/07 11:59:58;;;;;;;9.13;5.17;;;23.80;56.10;;;;;;5012556;28;20501;-45
2022/05/07 12:02:25;;;;;;;7.80;5.20;;;23.70;56.30;;;;;;5013104;28;20982;-44
2022/05/07 12:04:57;;;;;;;8.90;5.40;;;23.80;56.40;;;;;;5012383;28;20436;-44
2022/05/07 12:07:25;;;;;;;8.63;4.40;;;23.70;56.10;;;;;;5013054;28;20424;-45
2022/05/07 12:09:52;;;;;;;6.17;4.70;;;23.90;56.30;;;;;;5013423;28;20435;-45
2022/05/07 12:12:19;;;;;;;6.03;4.93;;;23.60;55.90;;;;;;5012845;28;20972;-44
2022/05/07 12:14:45;;;;;;;8.00;4.80;;;23.90;55.70;;;;;;5013615;28;20451;-44
2022/05/07 12:19:59;;;;;;;6.30;4.00;;;24.00;55.40;;;;;;5011327;28;20564;-45
2022/05/07 12:30:36;;;;;;;7.13;4.57;;;24.30;55.80;;;;;;5012125;28;21135;-45
2022/05/07 12:33:05;;;;;;;6.13;4.47;;;24.20;55.80;;;;;;5011052;28;20465;-43
2022/05/07 12:35:31;;;;;;;4.83;4.13;;;24.30;55.60;;;;;;5012324;28;20454;-49
2022/05/07 12:37:58;;;;;;;4.13;3.73;;;24.40;54.90;;;;;;5012188;28;20452;-45
2022/05/07 12:40:24;;;;;;;5.70;4.43;;;24.60;54.80;;;;;;5011447;28;20546;-45
2022/05/07 12:42:51;;;;;;;6.37;4.33;;;24.60;55.60;;;;;;5010783;28;20457;-45
2022/05/07 12:45:19;;;;;;;13.50;4.60;;;24.40;55.70;;;;;;5011656;28;20447;-45
2022/05/07 12:47:45;;;;;;;11.43;4.60;;;24.40;55.70;;;;;;5011334;28;20436;-44
2022/05/07 12:50:13;;;;;;;13.53;5.00;;;24.40;56.00;;;;;;5011428;28;20436;-45
2022/05/07 12:52:40;;;;;;;6.70;4.83;;;24.30;56.10;;;;;;5010787;28;20539;-45
2022/05/07 12:55:07;;;;;;;8.87;5.27;;;24.50;56.20;;;;;;5010970;28;20432;-44
2022/05/07 12:57:34;;;;;;;6.97;4.47;;;24.60;56.00;;;;;;5012016;28;20904;-45
2022/05/07 13:00:01;;;;;;;6.43;5.83;;;24.80;56.10;;;;;;5010954;28;20510;-45
2022/05/07 13:02:27;;;;;;;8.70;6.33;;;24.60;56.20;;;;;;5011981;28;20468;-45
2022/05/07 13:04:54;;;;;;;8.13;5.73;;;24.70;56.80;;;;;;5012303;28;21021;-45
2022/05/07 13:07:24;;;;;;;7.27;5.53;;;23.70;56.40;;;;;;5011415;28;20876;-45
2022/05/07 13:09:51;;;;;;;6.40;5.17;;;24.10;56.90;;;;;;5011379;28;20775;-44
2022/05/07 13:12:19;;;;;;;7.03;4.90;;;24.00;56.80;;;;;;5011487;28;20466;-45
2022/05/07 13:14:45;;;;;;;5.40;4.03;;;23.90;56.50;;;;;;5011312;28;20896;-44
2022/05/07 13:17:12;;;;;;;4.93;4.47;;;23.90;56.80;;;;;;5010985;28;20907;-45
2022/05/07 13:19:38;;;;;;;9.60;6.13;;;24.00;56.80;;;;;;5010546;28;20494;-45
2022/05/07 13:22:05;;;;;;;8.40;5.33;;;24.10;56.80;;;;;;5011193;28;20429;-45
2022/05/07 13:24:33;;;;;;;7.60;4.80;;;24.30;57.00;;;;;;5010681;28;20544;-45
2022/05/07 13:27:00;;;;;;;6.10;5.50;;;24.10;57.00;;;;;;5010645;28;20808;-45
2022/05/07 13:29:28;;;;;;;7.50;5.17;;;23.90;56.90;;;;;;5010491;28;20454;-45
2022/05/07 13:31:56;;;;;;;5.03;4.43;;;24.00;57.40;;;;;;5010616;28;20518;-45